EGHQ

Newquay Cornwall Airport

Newquay, United Kingdom
METAR EGHQ 092020Z 31022KT 9999 FEW025 09/05 Q1026
Observed Flight Rules
Dec-9 @ 20:20 UTC (2 hours ago) Visual Flight Rules
Wind Visibility Clouds
310° at 22 knots 10,000+ meters
  • Few at 2,500' AGL
Temperatures Readings
Current 9°C / 48°F
Dewpoint 5°C / 41°F
Humidity 76%
Altimeter 30.3" Hg
Pressure 1026 hPa
Elevation 119
METAR EGHQ 092020Z 31022KT 9999 FEW025 09/05 Q1026
Observed Flight Rules
Dec-9 @ 20:20 UTC
(2 hours ago)
VFR
Wind Visibility
310° at 22 knots 10,000+ meters
Clouds
  • Few at 2,500' AGL
Temperature Dewpoint
9°C / 48°F 5°C / 41°F
Humidity Altimeter Pressure
76% 30.3" Hg 1026 hPa